createdAt,value
2018-04-07T00:01:51.519Z,2.70
2018-04-07T00:04:20.721Z,2.90
2018-04-07T00:06:49.956Z,2.60
2018-04-07T00:09:19.173Z,2.83
2018-04-07T00:11:48.412Z,2.30
2018-04-07T00:14:17.620Z,2.43
2018-04-07T00:16:46.832Z,2.20
2018-04-07T00:19:16.056Z,3.03
2018-04-07T00:21:45.271Z,2.87
2018-04-07T00:24:14.504Z,3.30
2018-04-07T00:26:43.691Z,2.00
2018-04-07T00:29:12.912Z,2.40
2018-04-07T00:31:42.908Z,2.80
2018-04-07T00:34:12.128Z,2.30
2018-04-07T00:36:41.339Z,3.00
2018-04-07T00:39:11.314Z,3.00
2018-04-07T00:41:40.540Z,3.57
2018-04-07T00:44:09.833Z,2.40
2018-04-07T00:46:39.798Z,3.10
2018-04-07T00:49:09.832Z,2.73
2018-04-07T00:51:39.020Z,3.00
2018-04-07T00:54:08.611Z,3.00
2018-04-07T00:56:37.836Z,3.00
2018-04-07T00:59:07.047Z,3.00
2018-04-07T01:01:37.007Z,2.60
2018-04-07T01:04:06.225Z,3.10
2018-04-07T01:06:35.464Z,3.00
2018-04-07T01:09:06.071Z,3.00
2018-04-07T01:11:35.285Z,3.03
2018-04-07T01:14:04.482Z,2.83
2018-04-07T01:16:34.940Z,2.90
2018-04-07T01:19:04.902Z,3.07
2018-04-07T01:21:34.145Z,3.10
2018-04-07T01:24:04.160Z,3.27
2018-04-07T01:26:34.284Z,2.80
2018-04-07T01:29:04.255Z,3.20
2018-04-07T01:31:33.495Z,3.57
2018-04-07T01:34:03.431Z,2.90
2018-04-07T01:36:32.659Z,3.23
2018-04-07T01:39:01.865Z,3.07
2018-04-07T01:41:31.105Z,2.63
2018-04-07T01:44:01.064Z,2.97
2018-04-07T01:46:30.279Z,3.10
2018-04-07T01:48:59.483Z,3.30
2018-04-07T01:51:28.671Z,3.40
2018-04-07T01:53:57.910Z,2.90
2018-04-07T01:56:27.112Z,3.17
2018-04-07T01:58:56.359Z,3.17
2018-04-07T02:01:26.372Z,3.00
2018-04-07T02:03:55.571Z,3.67
2018-04-07T02:06:24.809Z,3.70
2018-04-07T02:08:54.894Z,3.13
2018-04-07T02:11:24.230Z,4.00
2018-04-07T02:13:54.233Z,3.30
2018-04-07T02:16:23.763Z,3.50
2018-04-07T02:18:53.001Z,4.37
2018-04-07T02:21:22.202Z,3.70
2018-04-07T02:23:52.284Z,3.97
2018-04-07T02:26:21.467Z,3.67
2018-04-07T02:28:50.685Z,4.10
2018-04-07T02:31:19.935Z,3.90
2018-04-07T02:33:49.176Z,4.03
2018-04-07T02:36:18.367Z,4.03
2018-04-07T02:38:47.570Z,4.37
2018-04-07T02:41:16.748Z,3.93
2018-04-07T02:43:46.739Z,4.40
2018-04-07T02:46:16.026Z,4.20
2018-04-07T02:48:45.251Z,4.07
2018-04-07T02:51:15.564Z,4.00
2018-04-07T02:53:44.775Z,4.60
2018-04-07T02:56:14.745Z,5.10
2018-04-07T02:58:43.974Z,4.30
2018-04-07T03:01:13.171Z,5.40
2018-04-07T03:03:42.439Z,4.37
2018-04-07T03:06:11.677Z,4.40
2018-04-07T03:08:41.626Z,4.60
2018-04-07T03:11:10.853Z,4.23
2018-04-07T03:13:40.047Z,4.40
2018-04-07T03:16:09.579Z,4.53
2018-04-07T03:18:38.760Z,4.20
2018-04-07T03:21:08.122Z,4.60
2018-04-07T03:23:37.347Z,4.60
2018-04-07T03:26:06.611Z,4.50
2018-04-07T03:28:35.851Z,4.60
2018-04-07T03:31:05.083Z,4.30
2018-04-07T03:33:35.043Z,4.97
2018-04-07T03:36:04.417Z,5.00
2018-04-07T03:38:33.649Z,4.77
2018-04-07T03:41:02.841Z,5.23
2018-04-07T03:43:32.149Z,4.37
2018-04-07T03:46:01.590Z,4.77
2018-04-07T03:48:31.735Z,4.70
2018-04-07T03:51:00.931Z,4.80
2018-04-07T03:53:30.124Z,5.27
2018-04-07T03:55:59.322Z,5.63
2018-04-07T03:58:28.526Z,5.10
2018-04-07T04:00:57.752Z,5.33
2018-04-07T04:03:26.941Z,4.77
2018-04-07T04:05:56.134Z,5.70
2018-04-07T04:08:25.358Z,4.80
2018-04-07T04:10:54.564Z,5.23
2018-04-07T04:13:23.754Z,4.60
2018-04-07T04:15:52.972Z,4.40
2018-04-07T04:18:22.161Z,5.60
2018-04-07T04:20:51.374Z,4.97
2018-04-07T04:23:20.620Z,5.27
2018-04-07T04:25:49.842Z,5.63
2018-04-07T04:28:19.026Z,5.03
2018-04-07T04:30:48.304Z,4.73
2018-04-07T04:33:17.574Z,4.90
2018-04-07T04:35:46.778Z,5.43
2018-04-07T04:38:16.063Z,4.97
2018-04-07T04:40:45.265Z,5.20
2018-04-07T04:43:15.264Z,4.83
2018-04-07T04:45:44.484Z,4.70
2018-04-07T04:48:14.463Z,4.53
2018-04-07T04:50:43.671Z,5.47
2018-04-07T04:53:13.550Z,5.20
2018-04-07T04:55:42.778Z,4.90
2018-04-07T04:58:11.983Z,4.90
2018-04-07T05:00:41.194Z,5.20
2018-04-07T05:03:11.182Z,5.50
2018-04-07T05:05:40.374Z,5.60
2018-04-07T05:08:09.582Z,4.90
2018-04-07T05:10:38.795Z,4.60
2018-04-07T05:13:08.032Z,5.80
2018-04-07T05:15:37.233Z,5.03
2018-04-07T05:18:06.455Z,5.10
2018-04-07T05:20:35.646Z,5.13
2018-04-07T05:23:04.868Z,5.07
2018-04-07T05:25:34.072Z,5.00
2018-04-07T05:28:03.305Z,5.40
2018-04-07T05:30:32.567Z,4.97
2018-04-07T05:33:01.797Z,5.03
2018-04-07T05:35:31.002Z,4.90
2018-04-07T05:38:00.207Z,4.87
2018-04-07T05:40:29.439Z,5.07
2018-04-07T05:42:58.667Z,5.17
2018-04-07T05:45:27.121Z,4.53
2018-04-07T05:47:56.210Z,5.10
2018-04-07T05:50:26.238Z,5.37
2018-04-07T05:52:55.540Z,4.60
2018-04-07T05:55:26.304Z,5.37
2018-04-07T05:57:56.276Z,4.83
2018-04-07T06:00:25.627Z,4.70
2018-04-07T06:02:54.831Z,5.50
2018-04-07T06:05:24.160Z,4.00
2018-04-07T06:07:53.319Z,4.87
2018-04-07T06:10:23.308Z,5.57
2018-04-07T06:12:52.510Z,4.57
2018-04-07T06:15:22.481Z,4.60
2018-04-07T06:17:51.696Z,5.17
2018-04-07T06:20:21.153Z,4.80
2018-04-07T06:22:50.363Z,5.20
2018-04-07T06:25:19.598Z,4.57
2018-04-07T06:27:48.804Z,4.50
2018-04-07T06:30:18.027Z,4.90
2018-04-07T06:32:47.299Z,4.83
2018-04-07T06:35:16.543Z,5.27
2018-04-07T06:37:45.852Z,4.60
2018-04-07T06:40:15.086Z,4.90
2018-04-07T06:42:44.281Z,4.70
2018-04-07T06:45:14.252Z,4.60
2018-04-07T06:47:44.204Z,5.40
2018-04-07T06:50:13.436Z,4.50
2018-04-07T06:52:42.630Z,5.47
2018-04-07T06:55:11.881Z,5.20
2018-04-07T06:57:41.141Z,4.50
2018-04-07T07:00:10.348Z,4.90
2018-04-07T07:02:39.750Z,4.80
2018-04-07T07:05:09.719Z,4.87
2018-04-07T07:07:38.931Z,4.70
2018-04-07T07:10:08.166Z,4.67
2018-04-07T07:12:37.373Z,4.40
2018-04-07T07:15:06.575Z,5.23
2018-04-07T07:17:35.890Z,5.17
2018-04-07T07:20:05.107Z,5.40
2018-04-07T07:22:34.339Z,4.67
2018-04-07T07:25:04.410Z,4.83
2018-04-07T07:27:33.690Z,5.27
2018-04-07T07:30:03.639Z,4.43
2018-04-07T07:32:32.887Z,4.40
2018-04-07T07:35:02.851Z,4.57
2018-04-07T07:37:32.042Z,4.77
2018-04-07T07:40:01.362Z,4.70
2018-04-07T07:42:30.874Z,5.30
2018-04-07T07:45:00.103Z,5.07
2018-04-07T07:47:29.416Z,4.63
2018-04-07T07:50:01.177Z,4.80
2018-04-07T07:52:30.446Z,4.57
2018-04-07T07:55:00.639Z,5.30
2018-04-07T07:57:29.882Z,5.17
2018-04-07T07:59:59.326Z,5.57
2018-04-07T08:02:28.573Z,4.90
2018-04-07T08:04:57.791Z,4.63
2018-04-07T08:07:27.044Z,5.33
2018-04-07T08:09:57.230Z,4.00
2018-04-07T08:12:26.431Z,4.77
2018-04-07T08:14:55.706Z,4.63
2018-04-07T08:17:24.939Z,5.13
2018-04-07T08:19:54.171Z,4.50
2018-04-07T08:22:23.709Z,4.47
2018-04-07T08:24:53.650Z,5.40
2018-04-07T08:27:22.871Z,6.13
2018-04-07T08:29:52.156Z,4.47
2018-04-07T08:32:21.359Z,4.63
2018-04-07T08:34:50.574Z,4.77
2018-04-07T08:37:20.658Z,4.07
2018-04-07T08:39:49.847Z,5.40
2018-04-07T08:42:19.181Z,4.30
2018-04-07T08:44:48.375Z,4.60
2018-04-07T08:47:17.607Z,4.57
2018-04-07T08:49:46.825Z,5.10
2018-04-07T08:52:16.099Z,4.70
2018-04-07T08:54:45.316Z,4.87
2018-04-07T08:57:14.532Z,4.47
2018-04-07T08:59:43.727Z,4.23
2018-04-07T09:02:12.934Z,4.67
2018-04-07T09:04:42.142Z,4.67
2018-04-07T09:07:11.341Z,5.13
2018-04-07T09:09:40.551Z,4.70
2018-04-07T09:12:11.270Z,5.03
2018-04-07T09:14:40.490Z,3.97
2018-04-07T09:17:10.471Z,4.03
2018-04-07T09:19:39.731Z,4.37
2018-04-07T09:22:09.552Z,4.70
2018-04-07T09:24:38.772Z,4.37
2018-04-07T09:27:07.979Z,4.80
2018-04-07T09:29:37.203Z,4.80
2018-04-07T09:32:06.438Z,4.93
2018-04-07T09:34:36.438Z,4.50
2018-04-07T09:37:06.422Z,4.80
2018-04-07T09:39:35.647Z,4.90
2018-04-07T09:42:05.668Z,4.60
2018-04-07T09:44:34.875Z,4.27
2018-04-07T09:47:04.091Z,4.70
2018-04-07T09:49:33.408Z,5.03
2018-04-07T09:52:02.627Z,4.50
2018-04-07T09:54:31.834Z,4.47
2018-04-07T09:57:01.051Z,4.40
2018-04-07T09:59:31.045Z,4.50
2018-04-07T10:02:00.226Z,4.40
2018-04-07T10:04:29.458Z,4.70
2018-04-07T10:06:59.426Z,4.77
2018-04-07T10:09:28.658Z,4.30
2018-04-07T10:11:58.632Z,5.17
2018-04-07T10:14:27.854Z,4.40
2018-04-07T10:16:57.227Z,3.93
2018-04-07T10:19:26.394Z,3.60
2018-04-07T10:21:56.379Z,3.87
2018-04-07T10:24:25.630Z,3.80
2018-04-07T10:26:54.865Z,4.10
2018-04-07T10:29:24.091Z,3.13
2018-04-07T10:31:54.391Z,3.73
2018-04-07T10:34:23.667Z,3.43
2018-04-07T10:36:52.876Z,3.20
2018-04-07T10:39:22.464Z,3.07
2018-04-07T10:41:51.703Z,3.70
2018-04-07T10:44:21.202Z,3.83
2018-04-07T10:46:50.580Z,3.53
2018-04-07T10:49:19.796Z,3.03
2018-04-07T10:51:49.038Z,3.30
2018-04-07T10:54:19.112Z,3.47
2018-04-07T10:56:48.488Z,3.23
2018-04-07T10:59:17.680Z,2.60
2018-04-07T11:01:46.938Z,3.30
2018-04-07T11:04:16.299Z,3.00
2018-04-07T11:06:45.534Z,2.87
2018-04-07T11:09:15.500Z,2.80
2018-04-07T11:11:44.838Z,3.10
2018-04-07T11:14:15.073Z,3.50
2018-04-07T11:16:44.448Z,2.70
2018-04-07T11:19:14.486Z,2.40
2018-04-07T11:21:44.755Z,3.33
2018-04-07T11:24:13.971Z,2.70
2018-04-07T11:26:43.166Z,2.60
2018-04-07T11:29:12.376Z,2.63
2018-04-07T11:31:41.868Z,2.00
2018-04-07T11:34:12.611Z,2.60
2018-04-07T11:36:41.814Z,2.17
2018-04-07T11:39:11.048Z,2.57
2018-04-07T11:41:41.031Z,2.50
2018-04-07T11:44:10.220Z,2.60
2018-04-07T11:46:39.426Z,2.90
2018-04-07T11:49:09.634Z,2.70
2018-04-07T11:51:40.784Z,2.40
2018-04-07T11:54:10.048Z,2.97
2018-04-07T11:56:39.260Z,2.60
2018-04-07T11:59:08.531Z,2.67
2018-04-07T12:01:39.470Z,2.73
2018-04-07T12:04:09.437Z,2.50
2018-04-07T12:06:38.751Z,2.63
2018-04-07T12:09:08.737Z,2.60
2018-04-07T12:11:38.162Z,2.40
2018-04-07T12:14:07.444Z,2.80
2018-04-07T12:16:36.669Z,2.43
2018-04-07T12:19:06.635Z,2.43
2018-04-07T12:21:35.894Z,2.37
2018-04-07T12:24:05.864Z,2.40
2018-04-07T12:26:35.084Z,2.50
2018-04-07T12:29:04.431Z,2.60
2018-04-07T12:31:33.653Z,2.33
2018-04-07T12:34:02.842Z,2.80
2018-04-07T12:36:32.059Z,3.00
2018-04-07T12:39:01.266Z,3.00
2018-04-07T12:41:30.471Z,2.97
2018-04-07T12:43:59.706Z,3.20
2018-04-07T12:46:28.939Z,2.83
2018-04-07T12:48:58.143Z,3.63
2018-04-07T12:51:27.318Z,3.23
2018-04-07T12:53:57.147Z,2.93
2018-04-07T12:56:26.539Z,3.50
2018-04-07T12:58:55.734Z,3.73
2018-04-07T13:01:25.007Z,2.70
2018-04-07T13:03:54.487Z,3.00
2018-04-07T13:06:24.119Z,2.80
2018-04-07T13:08:54.104Z,3.27
2018-04-07T13:11:24.157Z,2.67
2018-04-07T13:13:53.431Z,2.80
2018-04-07T13:16:22.656Z,3.83
2018-04-07T13:18:51.866Z,2.73
2018-04-07T13:21:21.059Z,3.03
2018-04-07T13:23:50.295Z,2.90
2018-04-07T13:26:19.505Z,3.20
2018-04-07T13:28:48.730Z,3.40
2018-04-07T13:31:17.915Z,2.80
2018-04-07T13:33:47.914Z,2.60
2018-04-07T13:36:17.129Z,2.57
2018-04-07T13:38:46.356Z,3.17
2018-04-07T13:41:16.011Z,2.57
2018-04-07T13:43:45.230Z,2.93
2018-04-07T13:46:15.220Z,2.83
2018-04-07T13:48:44.442Z,2.63
2018-04-07T13:51:14.458Z,2.57
2018-04-07T13:53:43.659Z,2.63
2018-04-07T13:56:13.809Z,2.33
2018-04-07T13:58:43.012Z,2.60
2018-04-07T14:01:12.240Z,2.50
2018-04-07T14:03:41.460Z,2.27
2018-04-07T14:06:12.275Z,2.40
2018-04-07T14:08:41.499Z,2.17
2018-04-07T14:11:11.734Z,2.53
2018-04-07T14:13:40.952Z,2.67
2018-04-07T14:16:10.232Z,2.60
2018-04-07T14:18:39.472Z,2.00
2018-04-07T14:21:09.480Z,2.27
2018-04-07T14:23:38.685Z,2.30
2018-04-07T14:26:07.899Z,2.37
2018-04-07T14:28:37.127Z,2.13
2018-04-07T14:31:07.119Z,2.37
2018-04-07T14:33:36.352Z,2.10
2018-04-07T14:36:06.340Z,2.23
2018-04-07T14:38:35.528Z,2.30
2018-04-07T14:41:04.739Z,1.60
2018-04-07T14:43:34.068Z,2.80
2018-04-07T14:46:04.051Z,2.80
2018-04-07T14:48:33.261Z,1.80
2018-04-07T14:51:03.265Z,2.17
2018-04-07T14:53:32.497Z,1.90
2018-04-07T14:56:01.781Z,2.00
2018-04-07T14:58:31.003Z,2.50
2018-04-07T15:01:00.236Z,1.97
2018-04-07T15:03:29.451Z,2.37
2018-04-07T15:05:58.691Z,1.90
2018-04-07T15:08:27.887Z,3.40
2018-04-07T15:10:57.119Z,2.57
2018-04-07T15:13:26.363Z,2.43
2018-04-07T15:15:55.539Z,2.57
2018-04-07T15:18:24.797Z,2.97
2018-04-07T15:20:54.066Z,3.00
2018-04-07T15:23:24.014Z,2.33
2018-04-07T15:25:53.323Z,2.10
2018-04-07T15:28:22.516Z,2.30
2018-04-07T15:30:51.774Z,2.60
2018-04-07T15:33:21.041Z,2.53
2018-04-07T15:35:50.259Z,2.30
2018-04-07T15:38:20.235Z,2.30
2018-04-07T15:40:49.479Z,2.50
2018-04-07T15:43:19.453Z,3.00
2018-04-07T15:45:48.838Z,2.13
2018-04-07T15:48:18.048Z,2.20
2018-04-07T15:50:47.247Z,2.80
2018-04-07T15:53:16.676Z,2.20
2018-04-07T15:55:46.681Z,2.70
2018-04-07T15:58:15.908Z,2.20
2018-04-07T16:00:45.264Z,2.87
2018-04-07T16:03:15.342Z,2.40
2018-04-07T16:05:44.559Z,2.40
2018-04-07T16:08:13.754Z,3.10
2018-04-07T16:10:42.974Z,2.20
2018-04-07T16:13:12.179Z,3.80
2018-04-07T16:15:41.704Z,3.10
2018-04-07T16:18:10.948Z,2.87
2018-04-07T16:20:40.174Z,2.30
2018-04-07T16:23:09.407Z,2.97
2018-04-07T16:25:39.387Z,3.90
2018-04-07T16:28:08.595Z,2.70
2018-04-07T16:30:37.815Z,3.00
2018-04-07T16:33:07.148Z,3.00
2018-04-07T16:35:37.026Z,3.40
2018-04-07T16:38:06.243Z,2.90
2018-04-07T16:40:35.484Z,3.20
2018-04-07T16:43:04.719Z,3.20
2018-04-07T16:45:34.732Z,3.57
2018-04-07T16:48:04.719Z,4.17
2018-04-07T16:50:34.691Z,3.50
2018-04-07T16:53:04.003Z,3.40
2018-04-07T16:55:33.972Z,3.40
2018-04-07T16:58:03.193Z,3.30
2018-04-07T17:00:33.221Z,3.30
2018-04-07T17:03:02.394Z,3.20
2018-04-07T17:05:31.605Z,3.83
2018-04-07T17:08:01.616Z,4.57
2018-04-07T17:10:31.583Z,5.20
2018-04-07T17:13:00.809Z,5.10
2018-04-07T17:15:30.048Z,5.40
2018-04-07T17:17:59.297Z,4.10
2018-04-07T17:20:28.510Z,3.83
2018-04-07T17:22:58.528Z,3.40
2018-04-07T17:25:27.721Z,3.20
2018-04-07T17:27:56.987Z,4.30
2018-04-07T17:30:26.194Z,3.70
2018-04-07T17:32:55.397Z,3.77
2018-04-07T17:35:24.616Z,4.23
2018-04-07T17:37:53.832Z,3.17
2018-04-07T17:40:23.049Z,3.57
2018-04-07T17:42:52.276Z,3.80
2018-04-07T17:45:21.498Z,2.70
2018-04-07T17:47:50.796Z,3.73
2018-04-07T17:50:20.776Z,3.90
2018-04-07T17:52:50.003Z,3.57
2018-04-07T17:55:19.207Z,3.70
2018-04-07T17:57:48.424Z,4.30
2018-04-07T18:00:18.382Z,4.80
2018-04-07T18:02:47.626Z,4.07
2018-04-07T18:05:17.720Z,4.47
2018-04-07T18:07:46.985Z,3.47
2018-04-07T18:10:16.201Z,4.30
2018-04-07T18:12:45.403Z,4.57
2018-04-07T18:15:14.621Z,4.07
2018-04-07T18:17:43.839Z,5.07
2018-04-07T18:20:13.309Z,4.73
2018-04-07T18:22:42.503Z,4.77
2018-04-07T18:25:11.729Z,5.10
2018-04-07T18:27:40.966Z,5.50
2018-04-07T18:30:10.188Z,4.93
2018-04-07T18:32:39.477Z,4.60
2018-04-07T18:35:08.704Z,3.90
2018-04-07T18:37:37.966Z,4.27
2018-04-07T18:40:07.275Z,5.00
2018-04-07T18:42:36.462Z,4.10
2018-04-07T18:45:05.667Z,4.30
2018-04-07T18:47:34.932Z,4.47
2018-04-07T18:50:04.985Z,4.20
2018-04-07T18:52:34.191Z,3.60
2018-04-07T18:55:03.421Z,3.77
2018-04-07T18:57:32.651Z,3.87
2018-04-07T19:00:01.907Z,3.37
2018-04-07T19:02:31.150Z,3.60
2018-04-07T19:05:00.398Z,3.37
2018-04-07T19:07:29.652Z,3.50
2018-04-07T19:09:58.871Z,3.90
2018-04-07T19:12:28.433Z,4.23
2018-04-07T19:14:57.620Z,4.50
2018-04-07T19:17:27.655Z,5.17
2018-04-07T19:19:57.620Z,4.43
2018-04-07T19:22:26.880Z,4.00
2018-04-07T19:24:56.097Z,4.57
2018-04-07T19:27:25.330Z,3.90
2018-04-07T19:29:54.552Z,4.07
2018-04-07T19:32:24.563Z,4.20
2018-04-07T19:34:54.559Z,5.00
2018-04-07T19:37:23.858Z,4.83
2018-04-07T19:39:53.127Z,4.60
2018-04-07T19:42:22.386Z,4.67
2018-04-07T19:44:52.425Z,4.40
2018-04-07T19:47:22.405Z,4.73
2018-04-07T19:49:51.621Z,5.83
2018-04-07T19:52:21.640Z,6.20
2018-04-07T19:54:51.638Z,5.57
2018-04-07T19:57:21.151Z,5.23
2018-04-07T19:59:51.131Z,5.70
2018-04-07T20:02:20.376Z,6.27
2018-04-07T20:04:50.350Z,5.20
2018-04-07T20:07:19.584Z,4.60
2018-04-07T20:09:48.807Z,4.23
2018-04-07T20:12:18.090Z,4.90
2018-04-07T20:14:48.069Z,5.27
2018-04-07T20:17:17.943Z,5.07
2018-04-07T20:19:47.110Z,4.80
2018-04-07T20:22:17.211Z,4.77
2018-04-07T20:24:47.248Z,4.80
2018-04-07T20:27:16.467Z,5.53
2018-04-07T20:29:45.696Z,5.13
2018-04-07T20:32:15.128Z,4.97
2018-04-07T20:34:45.086Z,6.07
2018-04-07T20:37:14.399Z,5.17
2018-04-07T20:39:43.655Z,4.90
2018-04-07T20:42:26.158Z,5.20
2018-04-07T20:44:55.366Z,4.97
2018-04-07T20:47:24.570Z,4.63
2018-04-07T20:49:53.803Z,5.03
2018-04-07T20:52:23.018Z,4.60
2018-04-07T20:54:52.234Z,4.93
2018-04-07T20:57:22.102Z,5.23
2018-04-07T20:59:51.325Z,5.07
2018-04-07T21:02:20.548Z,5.10
2018-04-07T21:04:50.546Z,4.90
2018-04-07T21:07:19.840Z,4.63
2018-04-07T21:09:49.046Z,4.70
2018-04-07T21:12:18.284Z,5.80
2018-04-07T21:14:48.272Z,5.63
2018-04-07T21:17:17.718Z,5.17
2018-04-07T21:19:46.958Z,5.33
2018-04-07T21:22:16.195Z,5.13
2018-04-07T21:24:45.434Z,5.30
2018-04-07T21:27:14.663Z,5.70
2018-04-07T21:29:44.662Z,5.33
2018-04-07T21:32:13.864Z,4.97
2018-04-07T21:34:43.101Z,6.00
2018-04-07T21:37:12.355Z,5.10
2018-04-07T21:39:41.560Z,5.70
2018-04-07T21:42:10.780Z,4.97
2018-04-07T21:44:40.773Z,5.00
2018-04-07T21:47:10.055Z,5.50
2018-04-07T21:49:39.339Z,5.33
2018-04-07T21:52:08.512Z,5.83
2018-04-07T21:54:37.723Z,5.40
2018-04-07T21:57:06.944Z,5.47
2018-04-07T21:59:36.193Z,4.80
2018-04-07T22:02:06.155Z,5.20
2018-04-07T22:04:35.400Z,5.50
2018-04-07T22:07:05.412Z,4.93
2018-04-07T22:09:35.396Z,4.93
2018-04-07T22:12:04.674Z,5.10
2018-04-07T22:14:33.913Z,4.40
2018-04-07T22:17:03.281Z,4.20
2018-04-07T22:19:32.519Z,4.67
2018-04-07T22:22:01.714Z,4.50
2018-04-07T22:24:31.795Z,4.37
2018-04-07T22:27:01.026Z,4.60
2018-04-07T22:29:31.052Z,5.17
2018-04-07T22:32:01.479Z,4.43
2018-04-07T22:34:31.469Z,5.50
2018-04-07T22:37:00.686Z,5.60
2018-04-07T22:39:30.687Z,5.20
2018-04-07T22:41:59.930Z,4.70
2018-04-07T22:44:29.142Z,5.80
2018-04-07T22:46:58.374Z,6.70
2018-04-07T22:49:27.594Z,5.87
2018-04-07T22:51:57.405Z,5.43
2018-04-07T22:54:26.627Z,4.90
2018-04-07T22:56:55.843Z,5.10
2018-04-07T22:59:25.070Z,5.33
2018-04-07T23:01:54.259Z,5.20
2018-04-07T23:04:24.991Z,6.20
2018-04-07T23:06:54.218Z,6.10
2018-04-07T23:09:23.591Z,7.43
2018-04-07T23:11:52.820Z,6.40
2018-04-07T23:14:22.790Z,7.23
2018-04-07T23:16:52.016Z,6.60
2018-04-07T23:19:21.205Z,7.47
2018-04-07T23:21:50.398Z,7.00
2018-04-07T23:24:19.610Z,6.50
2018-04-07T23:26:48.831Z,6.07
2018-04-07T23:29:18.055Z,6.80
2018-04-07T23:31:47.290Z,8.17
2018-04-07T23:34:16.505Z,8.43
2018-04-07T23:36:46.511Z,8.80
2018-04-07T23:39:15.712Z,7.60
2018-04-07T23:41:44.945Z,7.83
2018-04-07T23:44:14.935Z,7.00
2018-04-07T23:46:44.111Z,7.17
2018-04-07T23:49:13.341Z,7.30
2018-04-07T23:51:42.571Z,7.80
2018-04-07T23:54:11.827Z,7.83
2018-04-07T23:56:41.012Z,7.50
2018-04-07T23:59:11.078Z,7.93
